Weather at Libeliče Airfield

Public forecast

Using degrees Celsius for public forecast. Weather courtesy of forecast.io.

Closest aviation weather report (METAR) to Libeliče Airfield

Closest report is Klagenfurt Airport, 25.5 nm (47.2 km) W.

2024/05/20 01:50 (retrieved 35 minutes ago)

LOWK 200150Z AUTO 07003KT 9999 NSC 12/09 Q1012

Closest aviation forecast (TAF) to Libeliče Airfield

Forecast is more than 6 hours old.

Closest forecast is Lošinj Island Airport, 125.8 nm (233.0 km) S.

2024/05/19 18:36 Ammendment (retrieved 8 hours ago)

TAF AMD TAF AMD LDLO 191831Z 1918/2012 CNL